createdAt,value
2022-10-11T00:02:20.338Z,12.88
2022-10-11T00:05:22.429Z,12.64
2022-10-11T00:08:23.983Z,12.41
2022-10-11T00:11:26.054Z,12.37
2022-10-11T00:14:28.263Z,12.16
2022-10-11T00:17:29.891Z,12.36
2022-10-11T00:20:31.975Z,12.51
2022-10-11T00:23:33.892Z,12.46
2022-10-11T00:26:35.576Z,12.19
2022-10-11T00:29:38.032Z,12.11
2022-10-11T00:32:40.157Z,11.99
2022-10-11T00:35:42.432Z,11.83
2022-10-11T00:38:45.609Z,11.92
2022-10-11T00:41:49.223Z,12.10
2022-10-11T00:44:51.635Z,11.95
2022-10-11T00:48:01.138Z,11.72
2022-10-11T00:51:07.972Z,12.07
2022-10-11T00:54:15.618Z,11.87
2022-10-11T00:57:21.801Z,12.17
2022-10-11T01:00:23.421Z,12.10
2022-10-11T01:03:26.808Z,12.17
2022-10-11T01:06:28.764Z,12.27
2022-10-11T01:09:31.333Z,12.22
2022-10-11T01:12:33.498Z,12.14
2022-10-11T01:15:52.374Z,12.18
2022-10-11T01:19:17.702Z,12.26
2022-10-11T01:22:22.529Z,12.20
2022-10-11T01:25:33.240Z,12.16
2022-10-11T01:29:11.135Z,12.32
2022-10-11T01:32:34.003Z,12.40
2022-10-11T01:35:46.996Z,12.52
2022-10-11T01:38:58.325Z,12.49
2022-10-11T01:42:03.536Z,12.42
2022-10-11T01:45:09.812Z,12.15
2022-10-11T01:48:14.263Z,11.96
2022-10-11T01:51:16.328Z,12.08
2022-10-11T01:55:08.223Z,11.94
2022-10-11T01:58:27.537Z,12.18
2022-10-11T02:01:56.949Z,11.96
2022-10-11T02:05:18.320Z,11.81
2022-10-11T02:08:38.877Z,11.72
2022-10-11T02:11:41.636Z,11.76
2022-10-11T02:14:47.831Z,11.58
2022-10-11T02:17:54.516Z,11.49
2022-10-11T02:21:01.240Z,11.40
2022-10-11T02:24:11.688Z,11.40
2022-10-11T02:27:15.234Z,11.31
2022-10-11T02:30:17.390Z,11.29
2022-10-11T02:33:26.545Z,11.31
2022-10-11T02:36:43.771Z,11.23
2022-10-11T02:40:04.159Z,11.02
2022-10-11T02:43:13.456Z,11.04
2022-10-11T02:46:17.783Z,11.16
2022-10-11T02:49:21.391Z,11.39
2022-10-11T02:52:23.307Z,11.07
2022-10-11T02:55:24.919Z,10.97
2022-10-11T02:58:26.920Z,11.02
2022-10-11T03:01:28.611Z,11.12
2022-10-11T03:04:30.563Z,10.72
2022-10-11T03:07:32.152Z,10.53
2022-10-11T03:10:35.177Z,10.63
2022-10-11T03:13:36.806Z,10.71
2022-10-11T03:16:38.823Z,10.57
2022-10-11T03:19:40.441Z,10.52
2022-10-11T03:22:42.067Z,10.56
2022-10-11T03:25:46.264Z,10.51
2022-10-11T03:28:48.062Z,10.35
2022-10-11T03:31:49.647Z,10.03
2022-10-11T03:34:51.649Z,9.80
2022-10-11T03:37:53.229Z,9.72
2022-10-11T03:40:55.258Z,9.41
2022-10-11T03:43:56.902Z,9.35
2022-10-11T03:46:58.892Z,9.27
2022-10-11T03:50:00.629Z,9.18
2022-10-11T03:53:02.781Z,9.18
2022-10-11T03:56:08.259Z,9.26
2022-10-11T03:59:11.065Z,9.36
2022-10-11T04:02:12.666Z,9.68
2022-10-11T04:05:14.720Z,9.84
2022-10-11T04:08:16.295Z,9.99
2022-10-11T04:11:18.267Z,10.15
2022-10-11T04:14:20.214Z,10.28
2022-10-11T04:17:22.136Z,10.12
2022-10-11T04:20:23.999Z,10.18
2022-10-11T04:23:25.683Z,10.22
2022-10-11T04:26:27.661Z,10.49
2022-10-11T04:29:32.537Z,10.64
2022-10-11T04:32:34.985Z,10.66
2022-10-11T04:35:36.662Z,10.60
2022-10-11T04:38:38.219Z,10.68
2022-10-11T04:41:39.811Z,10.53
2022-10-11T04:44:41.814Z,10.49
2022-10-11T04:47:43.360Z,10.54
2022-10-11T04:50:45.813Z,10.62
2022-10-11T04:53:48.746Z,10.71
2022-10-11T04:56:50.497Z,10.71
2022-10-11T04:59:52.297Z,10.79
2022-10-11T05:02:54.174Z,10.90
2022-10-11T05:05:56.156Z,10.80
2022-10-11T05:08:57.738Z,10.67
2022-10-11T05:11:59.295Z,10.77
2022-10-11T05:15:01.403Z,10.68
2022-10-11T05:18:03.026Z,10.61
2022-10-11T05:21:14.411Z,10.76
2022-10-11T05:24:16.048Z,10.82
2022-10-11T05:27:17.841Z,10.66
2022-10-11T05:30:19.621Z,10.76
2022-10-11T05:33:21.877Z,10.84
2022-10-11T05:36:23.452Z,10.90
2022-10-11T05:39:25.254Z,10.95
2022-10-11T05:42:26.833Z,10.90
2022-10-11T05:45:28.729Z,10.86
2022-10-11T05:48:30.411Z,10.59
2022-10-11T05:51:32.445Z,10.71
2022-10-11T05:54:34.070Z,10.52
2022-10-11T05:57:35.634Z,10.50
2022-10-11T06:00:38.448Z,10.58
2022-10-11T06:03:39.982Z,10.87
2022-10-11T06:06:41.563Z,10.88
2022-10-11T06:09:43.542Z,10.82
2022-10-11T06:12:45.194Z,11.04
2022-10-11T06:15:46.848Z,11.01
2022-10-11T06:18:48.767Z,10.91
2022-10-11T06:21:50.448Z,11.29
2022-10-11T06:24:52.123Z,11.07
2022-10-11T06:27:53.806Z,11.22
2022-10-11T06:30:56.696Z,11.53
2022-10-11T06:33:59.469Z,11.99
2022-10-11T06:37:01.334Z,12.12
2022-10-11T06:40:03.563Z,12.42
2022-10-11T06:43:05.345Z,12.56
2022-10-11T06:46:07.583Z,12.61
2022-10-11T06:49:09.666Z,12.72
2022-10-11T06:52:11.268Z,12.86
2022-10-11T06:55:13.300Z,12.92
2022-10-11T06:58:14.873Z,13.05
2022-10-11T07:01:19.190Z,13.13
2022-10-11T07:04:21.032Z,13.00
2022-10-11T07:07:22.681Z,13.34
2022-10-11T07:10:24.206Z,13.66
2022-10-11T07:13:26.135Z,13.70
2022-10-11T07:16:28.722Z,13.58
2022-10-11T07:19:30.429Z,13.42
2022-10-11T07:22:31.992Z,13.53
2022-10-11T07:25:33.937Z,14.41
2022-10-11T07:28:37.533Z,14.55
2022-10-11T07:31:41.341Z,14.81
2022-10-11T07:34:43.594Z,14.35
2022-10-11T07:37:45.196Z,14.16
2022-10-11T07:40:46.983Z,14.50
2022-10-11T07:43:50.405Z,14.87
2022-10-11T07:46:52.329Z,14.77
2022-10-11T07:49:54.360Z,16.22
2022-10-11T07:52:55.969Z,15.91
2022-10-11T07:56:02.758Z,15.73
2022-10-11T07:59:04.878Z,17.81
2022-10-11T08:02:06.638Z,18.74
2022-10-11T08:05:08.576Z,17.80
2022-10-11T08:08:10.496Z,18.74
2022-10-11T08:11:21.046Z,18.81
2022-10-11T08:14:22.670Z,19.36
2022-10-11T08:17:25.068Z,20.19
2022-10-11T08:20:27.101Z,20.41
2022-10-11T08:23:28.736Z,18.89
2022-10-11T08:26:31.278Z,19.31
2022-10-11T08:29:33.171Z,20.99
2022-10-11T08:32:35.029Z,22.68
2022-10-11T08:35:36.743Z,23.44
2022-10-11T08:38:39.177Z,24.12
2022-10-11T08:42:00.770Z,23.63
2022-10-11T08:45:14.041Z,24.37
2022-10-11T08:48:32.583Z,23.66
2022-10-11T08:51:50.947Z,23.38
2022-10-11T08:55:11.129Z,22.64
2022-10-11T08:58:16.257Z,22.21
2022-10-11T09:01:24.027Z,21.78
2022-10-11T09:04:26.077Z,21.46
2022-10-11T09:07:49.057Z,22.50
2022-10-11T09:10:59.691Z,23.20
2022-10-11T09:14:24.399Z,23.59
2022-10-11T09:18:13.735Z,23.43
2022-10-11T09:21:52.956Z,25.27
2022-10-11T09:25:16.368Z,25.73
2022-10-11T09:28:34.007Z,24.71
2022-10-11T09:31:36.061Z,24.14
2022-10-11T09:34:38.420Z,23.97
2022-10-11T09:37:59.461Z,22.32
2022-10-11T09:41:25.571Z,22.38
2022-10-11T09:44:29.742Z,22.78
2022-10-11T09:47:33.073Z,22.90
2022-10-11T09:50:35.208Z,22.91
2022-10-11T09:54:05.327Z,22.33
2022-10-11T09:57:22.106Z,21.86
2022-10-11T10:00:26.644Z,21.38
2022-10-11T10:03:31.388Z,21.45
2022-10-11T10:06:33.285Z,21.96
2022-10-11T10:09:34.905Z,21.50
2022-10-11T10:15:38.378Z,21.59
2022-10-11T10:18:48.975Z,21.64
2022-10-11T10:21:54.111Z,22.07
2022-10-11T10:24:57.271Z,21.80
2022-10-11T10:28:01.927Z,21.59
2022-10-11T10:31:03.506Z,21.56
2022-10-11T10:34:14.444Z,21.31
2022-10-11T10:37:28.119Z,21.44
2022-10-11T10:40:40.530Z,21.15
2022-10-11T10:43:45.825Z,20.90
2022-10-11T10:46:56.405Z,20.71
2022-10-11T10:50:17.131Z,21.00
2022-10-11T10:53:24.540Z,20.53
2022-10-11T10:56:34.739Z,20.64
2022-10-11T10:59:36.222Z,20.53
2022-10-11T11:02:57.687Z,20.61
2022-10-11T11:06:57.585Z,20.76
2022-10-11T11:10:20.192Z,19.96
2022-10-11T11:13:39.326Z,20.57
2022-10-11T11:17:03.594Z,20.12
2022-10-11T11:20:25.038Z,20.38
2022-10-11T11:23:48.059Z,20.43
2022-10-11T11:27:04.370Z,20.85
2022-10-11T11:30:16.715Z,21.37
2022-10-11T11:33:36.117Z,21.83
2022-10-11T11:36:48.817Z,21.29
2022-10-11T11:39:55.909Z,20.38
2022-10-11T11:43:00.875Z,20.46
2022-10-11T11:46:20.674Z,20.60
2022-10-11T11:49:35.753Z,20.72
2022-10-11T11:52:44.197Z,21.21
2022-10-11T11:55:54.281Z,21.16
2022-10-11T11:59:10.231Z,21.74
2022-10-11T12:02:46.188Z,21.74
2022-10-11T12:06:12.627Z,21.54
2022-10-11T12:09:17.142Z,22.09
2022-10-11T12:12:37.568Z,22.10
2022-10-11T12:15:39.625Z,22.03
2022-10-11T12:18:56.391Z,21.97
2022-10-11T12:22:37.891Z,21.98
2022-10-11T12:25:42.240Z,21.99
2022-10-11T12:28:43.804Z,21.80
2022-10-11T12:31:51.072Z,21.65
2022-10-11T12:35:31.191Z,21.64
2022-10-11T12:38:40.331Z,21.28
2022-10-11T12:41:48.833Z,20.78
2022-10-11T12:45:12.841Z,21.03
2022-10-11T12:48:41.595Z,20.66
2022-10-11T12:52:04.500Z,20.52
2022-10-11T12:55:31.051Z,20.49
2022-10-11T12:58:46.708Z,20.29
2022-10-11T13:01:52.469Z,20.78
2022-10-11T13:05:15.467Z,20.76
2022-10-11T13:08:43.414Z,21.14
2022-10-11T13:11:54.329Z,21.01
2022-10-11T13:15:05.607Z,20.92
2022-10-11T13:18:14.036Z,21.07
2022-10-11T13:21:26.963Z,21.06
2022-10-11T13:24:39.969Z,20.94
2022-10-11T13:27:42.388Z,21.20
2022-10-11T13:30:47.741Z,21.15
2022-10-11T13:33:55.016Z,20.94
2022-10-11T13:36:58.669Z,20.57
2022-10-11T13:40:00.667Z,21.76
2022-10-11T13:43:05.616Z,21.56
2022-10-11T13:46:17.515Z,20.87
2022-10-11T13:49:40.380Z,20.53
2022-10-11T13:53:01.957Z,20.47
2022-10-11T13:56:07.885Z,20.15
2022-10-11T13:59:22.463Z,19.93
2022-10-11T14:02:32.730Z,19.85
2022-10-11T14:05:34.380Z,19.72
2022-10-11T14:08:45.442Z,19.64
2022-10-11T14:11:48.054Z,19.51
2022-10-11T14:14:50.338Z,19.50
2022-10-11T14:17:52.141Z,19.21
2022-10-11T14:20:53.765Z,19.22
2022-10-11T14:24:00.739Z,19.27
2022-10-11T14:27:05.647Z,19.29
2022-10-11T14:30:30.425Z,19.60
2022-10-11T14:33:33.387Z,19.84
2022-10-11T14:36:35.165Z,19.97
2022-10-11T14:39:37.283Z,20.17
2022-10-11T14:42:38.890Z,20.08
2022-10-11T14:45:40.824Z,20.06
2022-10-11T14:48:55.116Z,20.06
2022-10-11T14:51:59.014Z,19.90
2022-10-11T14:55:00.577Z,19.74
2022-10-11T14:58:02.518Z,19.98
2022-10-11T15:01:04.153Z,19.88
2022-10-11T15:04:05.838Z,19.77
2022-10-11T15:07:07.984Z,19.72
2022-10-11T15:10:23.532Z,19.42
2022-10-11T15:13:25.534Z,19.13
2022-10-11T15:16:27.145Z,18.99
2022-10-11T15:19:28.698Z,18.64
2022-10-11T15:22:30.724Z,18.47
2022-10-11T15:25:32.573Z,18.33
2022-10-11T15:28:34.466Z,18.28
2022-10-11T15:31:36.111Z,18.14
2022-10-11T15:34:37.787Z,17.93
2022-10-11T15:37:40.018Z,17.80
2022-10-11T15:40:41.795Z,17.66
2022-10-11T15:43:45.027Z,17.47
2022-10-11T15:46:46.672Z,17.27
2022-10-11T15:49:48.257Z,17.12
2022-10-11T15:52:52.048Z,17.06
2022-10-11T15:55:55.366Z,16.94
2022-10-11T15:58:56.941Z,16.86
2022-10-11T16:01:58.559Z,16.87
2022-10-11T16:05:00.522Z,16.75
2022-10-11T16:08:02.124Z,16.55
2022-10-11T16:11:05.955Z,16.37
2022-10-11T16:14:07.564Z,16.26
2022-10-11T16:17:09.121Z,16.31
2022-10-11T16:20:10.742Z,16.11
2022-10-11T16:23:13.646Z,16.06
2022-10-11T16:26:16.802Z,15.96
2022-10-11T16:29:18.426Z,15.84
2022-10-11T16:32:20.431Z,15.94
2022-10-11T16:35:22.198Z,15.92
2022-10-11T16:38:24.030Z,15.72
2022-10-11T16:41:25.633Z,15.78
2022-10-11T16:44:28.288Z,15.85
2022-10-11T16:47:30.594Z,15.66
2022-10-11T16:50:36.850Z,15.54
2022-10-11T16:53:40.772Z,15.31
2022-10-11T16:56:42.593Z,15.40
2022-10-11T16:59:44.329Z,15.34
2022-10-11T17:02:46.186Z,15.26
2022-10-11T17:05:47.754Z,15.44
2022-10-11T17:08:49.407Z,15.52
2022-10-11T17:11:51.628Z,15.57
2022-10-11T17:14:53.325Z,15.56
2022-10-11T17:17:55.829Z,15.54
2022-10-11T17:21:06.460Z,15.44
2022-10-11T17:24:08.530Z,15.37
2022-10-11T17:27:10.476Z,15.28
2022-10-11T17:30:12.640Z,15.29
2022-10-11T17:33:14.222Z,15.38
2022-10-11T17:36:34.619Z,15.28
2022-10-11T17:39:36.810Z,15.38
2022-10-11T17:42:38.745Z,15.38
2022-10-11T17:45:40.588Z,15.48
2022-10-11T17:48:42.534Z,15.47
2022-10-11T17:51:44.880Z,15.49
2022-10-11T17:54:46.733Z,15.44
2022-10-11T17:57:48.671Z,15.34
2022-10-11T18:00:51.284Z,15.23
2022-10-11T18:04:01.439Z,15.08
2022-10-11T18:07:03.776Z,15.14
2022-10-11T18:10:06.398Z,15.15
2022-10-11T18:13:11.978Z,15.03
2022-10-11T18:16:20.287Z,15.13
2022-10-11T18:19:21.989Z,15.09
2022-10-11T18:22:23.989Z,14.96
2022-10-11T18:25:26.063Z,14.88
2022-10-11T18:28:28.900Z,14.91
2022-10-11T18:31:32.335Z,15.00
2022-10-11T18:34:34.302Z,15.04
2022-10-11T18:37:36.110Z,14.96
2022-10-11T18:40:46.149Z,14.91
2022-10-11T18:43:56.745Z,14.89
2022-10-11T18:46:59.589Z,14.92
2022-10-11T18:50:01.956Z,14.84
2022-10-11T18:56:10.857Z,14.72
2022-10-11T18:59:13.108Z,14.73
2022-10-11T19:02:15.380Z,14.71
2022-10-11T19:05:17.410Z,14.71
2022-10-11T19:08:19.512Z,14.72
2022-10-11T19:11:23.264Z,14.74
2022-10-11T19:14:29.057Z,14.58
2022-10-11T19:17:31.329Z,14.50
2022-10-11T19:20:36.080Z,14.33
2022-10-11T19:23:43.961Z,14.13
2022-10-11T19:26:46.797Z,14.07
2022-10-11T19:29:48.823Z,13.95
2022-10-11T19:32:51.281Z,13.96
2022-10-11T19:36:01.055Z,13.92
2022-10-11T19:39:04.332Z,13.90
2022-10-11T19:42:06.430Z,13.78
2022-10-11T19:45:09.561Z,13.64
2022-10-11T19:48:12.094Z,13.52
2022-10-11T19:51:20.009Z,13.63
2022-10-11T19:54:22.320Z,13.69
2022-10-11T19:57:24.731Z,13.83
2022-10-11T20:00:26.805Z,13.97
2022-10-11T20:03:28.949Z,13.89
2022-10-11T20:06:37.911Z,13.90
2022-10-11T20:09:40.355Z,13.85
2022-10-11T20:12:45.793Z,13.97
2022-10-11T20:15:47.632Z,14.00
2022-10-11T20:18:49.550Z,13.94
2022-10-11T20:21:52.678Z,13.77
2022-10-11T20:24:54.514Z,13.21
2022-10-11T20:27:56.528Z,12.87
2022-10-11T20:30:59.039Z,12.87
2022-10-11T20:34:05.094Z,13.14
2022-10-11T20:37:07.108Z,13.01
2022-10-11T20:40:10.058Z,12.80
2022-10-11T20:43:11.717Z,13.08
2022-10-11T20:46:15.924Z,12.89
2022-10-11T20:49:20.197Z,12.83
2022-10-11T20:52:22.206Z,12.97
2022-10-11T20:55:24.094Z,12.98
2022-10-11T20:58:25.799Z,12.67
2022-10-11T21:01:49.219Z,12.61
2022-10-11T21:04:51.488Z,12.59
2022-10-11T21:07:53.205Z,12.72
2022-10-11T21:10:55.554Z,12.63
2022-10-11T21:13:58.805Z,12.46
2022-10-11T21:17:00.355Z,12.40
2022-10-11T21:20:04.306Z,12.48
2022-10-11T21:23:06.036Z,12.62
2022-10-11T21:26:10.808Z,12.51
2022-10-11T21:29:12.589Z,12.40
2022-10-11T21:32:14.638Z,12.61
2022-10-11T21:35:17.152Z,12.57
2022-10-11T21:38:18.700Z,12.56
2022-10-11T21:41:31.367Z,12.63
2022-10-11T21:44:36.372Z,12.60
2022-10-11T21:47:39.083Z,12.58
2022-10-11T21:50:41.204Z,12.67
2022-10-11T21:53:42.768Z,12.90
2022-10-11T21:56:44.863Z,12.82
2022-10-11T21:59:46.408Z,13.06
2022-10-11T22:02:48.024Z,13.16
2022-10-11T22:05:49.897Z,13.36
2022-10-11T22:08:52.818Z,13.51
2022-10-11T22:11:54.445Z,13.47
2022-10-11T22:14:56.042Z,13.42
2022-10-11T22:17:57.864Z,13.47
2022-10-11T22:21:08.730Z,13.41
2022-10-11T22:24:10.332Z,13.38
2022-10-11T22:27:12.151Z,13.27
2022-10-11T22:30:13.716Z,13.14
2022-10-11T22:33:17.003Z,13.09
2022-10-11T22:36:19.441Z,13.06
2022-10-11T22:39:21.345Z,13.05
2022-10-11T22:42:26.852Z,13.02
2022-10-11T22:45:29.370Z,13.05
2022-10-11T22:48:31.439Z,13.23
2022-10-11T22:51:33.023Z,13.48
2022-10-11T22:54:35.051Z,13.53
2022-10-11T22:57:37.105Z,13.62
2022-10-11T23:00:39.707Z,13.37
2022-10-11T23:03:41.584Z,13.31
2022-10-11T23:06:44.421Z,12.99
2022-10-11T23:09:46.061Z,12.82
2022-10-11T23:12:47.660Z,12.89
2022-10-11T23:15:49.672Z,13.05
2022-10-11T23:18:55.248Z,13.03
2022-10-11T23:21:57.250Z,13.10
2022-10-11T23:24:58.874Z,13.13
2022-10-11T23:28:01.709Z,13.01
2022-10-11T23:31:08.749Z,12.80
2022-10-11T23:34:10.325Z,12.89
2022-10-11T23:37:12.148Z,12.74
2022-10-11T23:40:13.719Z,12.60
2022-10-11T23:43:15.650Z,12.59
2022-10-11T23:46:17.329Z,12.52
2022-10-11T23:49:19.149Z,12.59
2022-10-11T23:52:20.968Z,12.46
2022-10-11T23:55:23.077Z,12.41
2022-10-11T23:58:24.777Z,12.36
